createdAt,value
2023-02-24T00:02:01.592Z,12.91
2023-02-24T00:04:38.415Z,12.88
2023-02-24T00:07:12.653Z,12.77
2023-02-24T00:09:40.330Z,12.78
2023-02-24T00:12:14.421Z,12.78
2023-02-24T00:14:45.957Z,12.81
2023-02-24T00:17:16.835Z,12.83
2023-02-24T00:19:46.491Z,12.80
2023-02-24T00:22:14.151Z,12.86
2023-02-24T00:24:42.016Z,12.89
2023-02-24T00:27:12.650Z,12.79
2023-02-24T00:29:41.880Z,12.69
2023-02-24T00:32:13.384Z,12.72
2023-02-24T00:34:41.654Z,12.73
2023-02-24T00:37:09.219Z,12.73
2023-02-24T00:39:41.188Z,12.76
2023-02-24T00:42:11.829Z,12.77
2023-02-24T00:44:47.268Z,12.69
2023-02-24T00:47:16.906Z,12.66
2023-02-24T00:49:45.025Z,12.60
2023-02-24T00:52:20.093Z,12.53
2023-02-24T00:54:49.784Z,12.49
2023-02-24T00:57:18.574Z,12.47
2023-02-24T00:59:47.661Z,12.47
2023-02-24T01:02:16.067Z,12.48
2023-02-24T01:04:45.527Z,12.46
2023-02-24T01:07:14.699Z,12.41
2023-02-24T01:09:44.178Z,12.40
2023-02-24T01:12:32.003Z,12.39
2023-02-24T01:14:59.624Z,12.46
2023-02-24T01:17:27.171Z,12.48
2023-02-24T01:19:55.085Z,12.53
2023-02-24T01:22:23.836Z,12.57
2023-02-24T01:24:51.503Z,12.62
2023-02-24T01:27:19.892Z,12.57
2023-02-24T01:29:48.267Z,12.52
2023-02-24T01:32:22.312Z,12.55
2023-02-24T01:34:53.513Z,12.56
2023-02-24T01:37:21.752Z,12.55
2023-02-24T01:39:50.399Z,12.50
2023-02-24T01:42:21.596Z,12.54
2023-02-24T01:44:51.842Z,12.56
2023-02-24T01:47:21.005Z,12.58
2023-02-24T01:49:54.210Z,12.46
2023-02-24T01:52:31.173Z,12.48
2023-02-24T01:55:28.878Z,12.49
2023-02-24T01:57:58.687Z,12.48
2023-02-24T02:00:37.474Z,12.47
2023-02-24T02:03:18.430Z,12.46
2023-02-24T02:05:48.573Z,12.50
2023-02-24T02:08:19.523Z,12.46
2023-02-24T02:10:47.656Z,12.46
2023-02-24T02:13:21.480Z,12.38
2023-02-24T02:16:37.362Z,12.35
2023-02-24T02:19:43.111Z,12.39
2023-02-24T02:22:49.870Z,12.29
2023-02-24T02:26:22.599Z,12.15
2023-02-24T02:29:13.996Z,12.21
2023-02-24T02:32:34.912Z,12.18
2023-02-24T02:35:19.122Z,12.25
2023-02-24T02:38:04.380Z,12.26
2023-02-24T02:40:53.312Z,12.17
2023-02-24T02:44:07.537Z,12.14
2023-02-24T02:47:01.186Z,12.16
2023-02-24T02:49:37.721Z,12.14
2023-02-24T02:52:42.440Z,12.08
2023-02-24T02:55:17.322Z,12.15
2023-02-24T02:57:49.054Z,12.07
2023-02-24T03:00:29.250Z,12.07
2023-02-24T03:03:04.180Z,12.12
2023-02-24T03:05:53.430Z,12.10
2023-02-24T03:08:29.542Z,12.14
2023-02-24T03:11:00.367Z,12.15
2023-02-24T03:13:32.119Z,12.16
2023-02-24T03:16:03.583Z,12.09
2023-02-24T03:18:44.848Z,12.09
2023-02-24T03:21:46.703Z,12.05
2023-02-24T03:24:15.690Z,12.02
2023-02-24T03:27:07.983Z,12.00
2023-02-24T03:29:54.990Z,12.05
2023-02-24T03:32:51.227Z,12.03
2023-02-24T03:35:34.318Z,12.01
2023-02-24T03:38:04.072Z,11.93
2023-02-24T03:40:35.916Z,11.95
2023-02-24T03:43:16.936Z,11.93
2023-02-24T03:45:46.648Z,11.85
2023-02-24T03:48:15.625Z,11.89
2023-02-24T03:50:46.316Z,11.72
2023-02-24T03:53:53.288Z,11.69
2023-02-24T03:56:58.676Z,11.75
2023-02-24T03:59:57.362Z,11.79
2023-02-24T04:02:33.466Z,11.79
2023-02-24T04:05:10.851Z,11.71
2023-02-24T04:08:00.460Z,11.79
2023-02-24T04:10:36.451Z,11.76
2023-02-24T04:13:23.121Z,11.80
2023-02-24T04:16:01.578Z,11.86
2023-02-24T04:18:32.630Z,11.90
2023-02-24T04:21:04.215Z,11.95
2023-02-24T04:23:43.382Z,11.81
2023-02-24T04:26:15.866Z,11.77
2023-02-24T04:28:44.200Z,11.74
2023-02-24T04:31:17.371Z,11.74
2023-02-24T04:33:50.429Z,11.75
2023-02-24T04:36:21.762Z,11.66
2023-02-24T04:38:50.160Z,11.66
2023-02-24T04:41:22.152Z,11.62
2023-02-24T04:43:52.416Z,11.59
2023-02-24T04:46:20.297Z,11.64
2023-02-24T04:48:47.881Z,11.60
2023-02-24T04:51:15.676Z,11.59
2023-02-24T04:53:43.190Z,11.59
2023-02-24T04:56:11.036Z,11.63
2023-02-24T04:58:40.035Z,11.63
2023-02-24T05:01:11.563Z,11.60
2023-02-24T05:03:42.844Z,11.52
2023-02-24T05:06:16.226Z,11.49
2023-02-24T05:08:44.210Z,11.47
2023-02-24T05:11:16.639Z,11.46
2023-02-24T05:13:47.676Z,11.43
2023-02-24T05:16:18.224Z,11.42
2023-02-24T05:18:45.891Z,11.45
2023-02-24T05:21:36.236Z,11.36
2023-02-24T05:24:07.377Z,11.36
2023-02-24T05:26:36.999Z,11.44
2023-02-24T05:29:07.176Z,11.42
2023-02-24T05:31:35.095Z,11.34
2023-02-24T05:34:06.536Z,11.35
2023-02-24T05:36:45.744Z,11.35
2023-02-24T05:39:19.146Z,11.32
2023-02-24T05:41:49.457Z,11.36
2023-02-24T05:44:23.296Z,11.40
2023-02-24T05:46:56.557Z,11.37
2023-02-24T05:49:33.021Z,11.32
2023-02-24T05:52:08.761Z,11.25
2023-02-24T05:54:43.993Z,11.22
2023-02-24T05:57:17.226Z,11.20
2023-02-24T05:59:45.185Z,11.09
2023-02-24T06:02:16.666Z,11.07
2023-02-24T06:04:51.174Z,11.09
2023-02-24T06:07:24.641Z,11.08
2023-02-24T06:09:57.101Z,11.07
2023-02-24T06:12:34.091Z,11.14
2023-02-24T06:15:07.254Z,11.07
2023-02-24T06:17:34.924Z,11.03
2023-02-24T06:20:13.260Z,11.02
2023-02-24T06:22:42.445Z,11.08
2023-02-24T06:25:14.061Z,11.06
2023-02-24T06:27:43.082Z,11.12
2023-02-24T06:30:11.739Z,11.15
2023-02-24T06:32:39.647Z,11.07
2023-02-24T06:35:08.639Z,11.04
2023-02-24T06:37:36.184Z,11.02
2023-02-24T06:40:15.588Z,11.06
2023-02-24T06:42:49.251Z,11.10
2023-02-24T06:45:17.132Z,11.17
2023-02-24T06:47:46.637Z,11.25
2023-02-24T06:50:14.829Z,11.26
2023-02-24T06:52:43.221Z,11.27
2023-02-24T06:55:25.273Z,11.28
2023-02-24T06:58:04.593Z,11.25
2023-02-24T07:00:40.950Z,11.13
2023-02-24T07:03:17.382Z,11.09
2023-02-24T07:05:50.606Z,11.12
2023-02-24T07:08:23.762Z,11.08
2023-02-24T07:10:58.082Z,10.98
2023-02-24T07:13:29.893Z,11.01
2023-02-24T07:16:07.225Z,10.93
2023-02-24T07:18:41.358Z,10.78
2023-02-24T07:21:11.709Z,10.87
2023-02-24T07:23:45.566Z,10.86
2023-02-24T07:26:19.854Z,10.87
2023-02-24T07:28:48.233Z,10.78
2023-02-24T07:31:21.100Z,10.83
2023-02-24T07:33:51.161Z,10.83
2023-02-24T07:36:23.133Z,10.88
2023-02-24T07:38:55.117Z,10.96
2023-02-24T07:41:23.674Z,11.04
2023-02-24T07:43:53.710Z,11.07
2023-02-24T07:46:27.971Z,11.07
2023-02-24T07:48:59.073Z,11.10
2023-02-24T07:51:29.355Z,11.16
2023-02-24T07:54:00.428Z,11.19
2023-02-24T07:56:30.969Z,11.12
2023-02-24T07:59:02.202Z,11.16
2023-02-24T08:01:38.967Z,11.24
2023-02-24T08:04:12.416Z,11.34
2023-02-24T08:06:47.826Z,11.35
2023-02-24T08:09:20.878Z,11.36
2023-02-24T08:11:52.708Z,11.43
2023-02-24T08:14:25.831Z,11.47
2023-02-24T08:16:59.441Z,11.48
2023-02-24T08:19:33.478Z,11.42
2023-02-24T08:22:20.210Z,11.43
2023-02-24T08:24:55.060Z,11.46
2023-02-24T08:27:31.645Z,11.37
2023-02-24T08:30:04.074Z,11.33
2023-02-24T08:32:46.833Z,11.21
2023-02-24T08:35:17.908Z,11.23
2023-02-24T08:37:52.500Z,11.25
2023-02-24T08:40:33.864Z,11.36
2023-02-24T08:43:16.363Z,11.31
2023-02-24T08:45:56.546Z,11.44
2023-02-24T08:48:37.931Z,11.43
2023-02-24T08:51:08.236Z,11.63
2023-02-24T08:53:40.318Z,11.77
2023-02-24T08:56:14.713Z,11.82
2023-02-24T08:58:48.417Z,11.82
2023-02-24T09:01:25.550Z,11.87
2023-02-24T09:03:57.542Z,11.97
2023-02-24T09:06:36.640Z,12.06
2023-02-24T09:09:23.480Z,12.10
2023-02-24T09:11:59.737Z,12.14
2023-02-24T09:14:37.349Z,12.20
2023-02-24T09:17:11.261Z,12.18
2023-02-24T09:19:47.938Z,12.19
2023-02-24T09:22:31.371Z,12.14
2023-02-24T09:25:18.961Z,12.15
2023-02-24T09:27:52.303Z,12.15
2023-02-24T09:30:35.709Z,12.07
2023-02-24T09:33:38.853Z,11.96
2023-02-24T09:36:19.925Z,11.96
2023-02-24T09:38:59.856Z,11.94
2023-02-24T09:41:56.149Z,11.97
2023-02-24T09:44:36.968Z,11.98
2023-02-24T09:47:56.828Z,11.91
2023-02-24T09:51:03.903Z,12.05
2023-02-24T09:53:49.295Z,12.03
2023-02-24T09:56:42.352Z,11.96
2023-02-24T09:59:26.074Z,11.96
2023-02-24T10:02:03.185Z,11.94
2023-02-24T10:05:07.883Z,11.95
2023-02-24T10:07:40.110Z,12.07
2023-02-24T10:10:28.705Z,11.86
2023-02-24T10:13:14.744Z,11.71
2023-02-24T10:16:10.443Z,11.74
2023-02-24T10:19:00.955Z,11.81
2023-02-24T10:21:49.412Z,11.78
2023-02-24T10:24:35.816Z,11.73
2023-02-24T10:27:17.734Z,11.57
2023-02-24T10:30:05.660Z,11.57
2023-02-24T10:32:48.105Z,11.54
2023-02-24T10:35:25.883Z,11.55
2023-02-24T10:37:58.903Z,11.60
2023-02-24T10:40:43.767Z,11.65
2023-02-24T10:43:20.228Z,11.68
2023-02-24T10:45:48.317Z,11.60
2023-02-24T10:48:40.628Z,11.55
2023-02-24T10:51:31.728Z,11.59
2023-02-24T10:54:25.062Z,11.62
2023-02-24T10:57:07.462Z,11.58
2023-02-24T11:00:20.006Z,11.64
2023-02-24T11:03:10.569Z,11.60
2023-02-24T11:06:04.919Z,11.66
2023-02-24T11:08:39.855Z,11.66
2023-02-24T11:11:53.583Z,11.54
2023-02-24T11:14:39.958Z,11.65
2023-02-24T11:17:23.346Z,11.76
2023-02-24T11:20:00.263Z,11.88
2023-02-24T11:22:37.136Z,11.94
2023-02-24T11:25:18.503Z,11.96
2023-02-24T11:27:46.940Z,12.05
2023-02-24T11:30:46.019Z,11.99
2023-02-24T11:33:58.333Z,11.83
2023-02-24T11:37:01.253Z,11.59
2023-02-24T11:40:02.343Z,11.62
2023-02-24T11:42:46.121Z,11.73
2023-02-24T11:45:43.144Z,11.81
2023-02-24T11:48:22.656Z,11.94
2023-02-24T11:51:12.119Z,11.98
2023-02-24T11:54:04.032Z,11.97
2023-02-24T11:56:38.972Z,12.14
2023-02-24T11:59:42.415Z,12.27
2023-02-24T12:02:17.260Z,12.37
2023-02-24T12:05:25.063Z,12.36
2023-02-24T12:08:03.502Z,12.54
2023-02-24T12:10:47.365Z,12.39
2023-02-24T12:13:32.324Z,12.37
2023-02-24T12:16:17.976Z,12.46
2023-02-24T12:18:55.389Z,12.50
2023-02-24T12:21:35.805Z,12.53
2023-02-24T12:24:08.441Z,12.59
2023-02-24T12:27:16.007Z,12.72
2023-02-24T12:30:34.019Z,12.84
2023-02-24T12:33:27.944Z,12.82
2023-02-24T12:36:14.560Z,12.87
2023-02-24T12:39:15.862Z,12.93
2023-02-24T12:42:11.079Z,13.01
2023-02-24T12:45:01.757Z,12.94
2023-02-24T12:47:53.175Z,12.98
2023-02-24T12:50:53.933Z,13.07
2023-02-24T12:53:33.540Z,13.12
2023-02-24T12:56:49.226Z,12.95
2023-02-24T12:59:25.775Z,12.92
2023-02-24T13:02:07.469Z,12.83
2023-02-24T13:04:49.567Z,12.92
2023-02-24T13:07:46.702Z,12.86
2023-02-24T13:10:48.300Z,12.82
2023-02-24T13:13:42.911Z,12.87
2023-02-24T13:16:12.322Z,12.96
2023-02-24T13:19:29.859Z,12.73
2023-02-24T13:22:07.400Z,12.94
2023-02-24T13:24:36.206Z,12.91
2023-02-24T13:27:29.306Z,13.03
2023-02-24T13:30:11.830Z,12.90
2023-02-24T13:32:44.814Z,12.79
2023-02-24T13:35:15.443Z,12.92
2023-02-24T13:37:47.230Z,12.86
2023-02-24T13:40:23.216Z,12.98
2023-02-24T13:42:59.525Z,12.81
2023-02-24T13:45:36.515Z,12.78
2023-02-24T13:48:54.038Z,12.70
2023-02-24T13:51:39.928Z,12.67
2023-02-24T13:54:47.646Z,12.44
2023-02-24T13:58:19.332Z,12.34
2023-02-24T14:01:08.410Z,12.32
2023-02-24T14:03:40.217Z,12.55
2023-02-24T14:06:25.853Z,12.63
2023-02-24T14:08:57.413Z,12.68
2023-02-24T14:11:29.796Z,12.65
2023-02-24T14:13:59.028Z,12.65
2023-02-24T14:16:38.334Z,12.57
2023-02-24T14:19:16.165Z,12.61
2023-02-24T14:21:51.368Z,12.58
2023-02-24T14:24:20.037Z,12.46
2023-02-24T14:26:55.239Z,12.54
2023-02-24T14:29:29.645Z,12.45
2023-02-24T14:31:59.224Z,12.57
2023-02-24T14:34:30.458Z,12.61
2023-02-24T14:37:02.320Z,12.63
2023-02-24T14:39:32.458Z,12.69
2023-02-24T14:42:09.634Z,12.67
2023-02-24T14:44:47.297Z,12.66
2023-02-24T14:47:17.359Z,12.72
2023-02-24T14:50:00.000Z,12.66
2023-02-24T14:52:41.673Z,12.70
2023-02-24T14:55:24.050Z,12.55
2023-02-24T14:58:16.415Z,12.28
2023-02-24T15:00:56.342Z,12.47
2023-02-24T15:03:37.862Z,12.35
2023-02-24T15:06:13.165Z,12.33
2023-02-24T15:08:52.447Z,12.15
2023-02-24T15:11:25.798Z,12.27
2023-02-24T15:14:00.998Z,12.29
2023-02-24T15:16:45.170Z,12.30
2023-02-24T15:19:27.801Z,12.24
2023-02-24T15:21:55.393Z,12.28
2023-02-24T15:24:33.991Z,12.27
2023-02-24T15:27:15.101Z,12.29
2023-02-24T15:29:44.624Z,12.24
2023-02-24T15:32:21.230Z,12.20
2023-02-24T15:34:49.351Z,12.15
2023-02-24T15:37:42.020Z,12.09
2023-02-24T15:40:20.833Z,12.04
2023-02-24T15:42:58.964Z,12.16
2023-02-24T15:45:36.059Z,11.99
2023-02-24T15:48:27.841Z,12.07
2023-02-24T15:51:04.966Z,12.08
2023-02-24T15:53:32.877Z,12.01
2023-02-24T15:56:00.439Z,12.07
2023-02-24T15:58:27.991Z,12.07
2023-02-24T16:00:55.542Z,12.11
2023-02-24T16:03:23.102Z,12.05
2023-02-24T16:05:50.678Z,12.10
2023-02-24T16:08:20.237Z,11.85
2023-02-24T16:10:50.418Z,11.87
2023-02-24T16:13:23.083Z,11.88
2023-02-24T16:15:51.199Z,12.00
2023-02-24T16:18:23.046Z,11.90
2023-02-24T16:20:56.511Z,11.78
2023-02-24T16:23:26.256Z,11.82
2023-02-24T16:25:59.173Z,11.73
2023-02-24T16:28:27.177Z,11.74
2023-02-24T16:30:54.824Z,11.81
2023-02-24T16:33:23.696Z,11.88
2023-02-24T16:35:55.180Z,11.98
2023-02-24T16:38:27.511Z,11.84
2023-02-24T16:40:55.667Z,11.99
2023-02-24T16:43:24.786Z,12.04
2023-02-24T16:45:55.555Z,11.91
2023-02-24T16:48:26.317Z,11.80
2023-02-24T16:50:54.125Z,11.82
2023-02-24T16:53:24.222Z,11.95
2023-02-24T16:55:52.199Z,11.95
2023-02-24T16:58:20.028Z,11.96
2023-02-24T17:00:52.203Z,11.99
2023-02-24T17:03:31.292Z,11.74
2023-02-24T17:05:58.862Z,11.60
2023-02-24T17:08:26.598Z,11.49
2023-02-24T17:10:54.176Z,11.53
2023-02-24T17:13:22.780Z,11.53
2023-02-24T17:15:55.258Z,11.65
2023-02-24T17:18:24.664Z,11.65
2023-02-24T17:20:53.258Z,11.55
2023-02-24T17:23:20.916Z,11.52
2023-02-24T17:25:54.277Z,11.45
2023-02-24T17:28:22.193Z,11.41
2023-02-24T17:30:49.793Z,11.53
2023-02-24T17:33:17.728Z,11.58
2023-02-24T17:35:47.032Z,11.63
2023-02-24T17:38:16.920Z,11.65
2023-02-24T17:40:45.322Z,11.49
2023-02-24T17:43:13.439Z,11.54
2023-02-24T17:45:44.811Z,11.51
2023-02-24T17:48:14.636Z,11.51
2023-02-24T17:50:47.989Z,11.53
2023-02-24T17:53:16.025Z,11.55
2023-02-24T17:55:59.969Z,11.42
2023-02-24T17:58:30.503Z,11.36
2023-02-24T18:00:58.250Z,11.35
2023-02-24T18:03:25.908Z,11.49
2023-02-24T18:06:09.972Z,11.51
2023-02-24T18:08:38.996Z,11.54
2023-02-24T18:11:09.834Z,11.34
2023-02-24T18:13:37.429Z,11.49
2023-02-24T18:16:13.748Z,11.57
2023-02-24T18:18:41.461Z,11.38
2023-02-24T18:21:09.391Z,11.36
2023-02-24T18:23:40.163Z,11.47
2023-02-24T18:26:10.352Z,11.41
2023-02-24T18:28:39.005Z,11.41
2023-02-24T18:31:21.180Z,11.30
2023-02-24T18:33:50.096Z,11.32
2023-02-24T18:36:18.697Z,11.35
2023-02-24T18:38:46.512Z,11.28
2023-02-24T18:41:23.264Z,11.02
2023-02-24T18:43:54.296Z,11.16
2023-02-24T18:46:23.298Z,11.27
2023-02-24T18:48:51.257Z,11.12
2023-02-24T18:51:22.933Z,11.11
2023-02-24T18:53:52.717Z,10.89
2023-02-24T18:56:24.615Z,10.81
2023-02-24T18:58:56.856Z,10.82
2023-02-24T19:01:26.557Z,10.75
2023-02-24T19:03:55.796Z,10.80
2023-02-24T19:06:26.949Z,10.83
2023-02-24T19:09:02.514Z,10.54
2023-02-24T19:11:30.330Z,10.48
2023-02-24T19:14:00.443Z,10.50
2023-02-24T19:16:28.677Z,10.46
2023-02-24T19:18:58.075Z,10.61
2023-02-24T19:21:28.541Z,10.64
2023-02-24T19:23:58.924Z,10.67
2023-02-24T19:26:28.268Z,10.60
2023-02-24T19:28:58.367Z,10.23
2023-02-24T19:31:29.660Z,10.42
2023-02-24T19:34:05.333Z,10.64
2023-02-24T19:36:35.898Z,10.66
2023-02-24T19:39:08.360Z,10.61
2023-02-24T19:41:36.838Z,10.66
2023-02-24T19:44:04.526Z,10.71
2023-02-24T19:46:33.980Z,10.71
2023-02-24T19:49:01.906Z,10.73
2023-02-24T19:51:30.212Z,10.62
2023-02-24T19:54:03.116Z,10.73
2023-02-24T19:56:35.075Z,10.51
2023-02-24T19:59:04.849Z,10.65
2023-02-24T20:01:32.710Z,10.60
2023-02-24T20:04:02.896Z,10.66
2023-02-24T20:06:35.686Z,10.60
2023-02-24T20:09:08.885Z,10.68
2023-02-24T20:11:38.973Z,10.83
2023-02-24T20:14:08.667Z,10.93
2023-02-24T20:16:40.915Z,10.93
2023-02-24T20:19:12.341Z,10.93
2023-02-24T20:21:40.779Z,10.77
2023-02-24T20:24:13.871Z,10.69
2023-02-24T20:26:46.924Z,10.70
2023-02-24T20:29:16.484Z,10.52
2023-02-24T20:31:44.379Z,10.48
2023-02-24T20:34:14.316Z,10.48
2023-02-24T20:36:43.674Z,10.60
2023-02-24T20:39:14.098Z,10.59
2023-02-24T20:41:41.952Z,10.68
2023-02-24T20:44:11.171Z,10.64
2023-02-24T20:46:38.831Z,10.72
2023-02-24T20:49:08.930Z,10.79
2023-02-24T20:51:37.956Z,10.68
2023-02-24T20:54:07.620Z,10.39
2023-02-24T20:56:38.124Z,10.53
2023-02-24T20:59:12.536Z,10.44
2023-02-24T21:01:40.621Z,10.61
2023-02-24T21:04:08.848Z,10.60
2023-02-24T21:06:37.067Z,10.54
2023-02-24T21:09:05.393Z,10.50
2023-02-24T21:11:33.786Z,10.35
2023-02-24T21:14:01.522Z,10.13
2023-02-24T21:16:29.108Z,9.98
2023-02-24T21:18:58.779Z,9.96
2023-02-24T21:21:26.757Z,9.68
2023-02-24T21:23:55.137Z,9.59
2023-02-24T21:26:26.544Z,9.67
2023-02-24T21:28:57.658Z,9.70
2023-02-24T21:31:26.765Z,9.57
2023-02-24T21:33:55.140Z,9.56
2023-02-24T21:36:26.278Z,9.49
2023-02-24T21:38:54.863Z,9.29
2023-02-24T21:41:23.601Z,9.30
2023-02-24T21:43:55.869Z,9.24
2023-02-24T21:46:27.870Z,9.25
2023-02-24T21:48:59.922Z,9.07
2023-02-24T21:51:29.098Z,9.08
2023-02-24T21:53:57.640Z,8.99
2023-02-24T21:56:29.933Z,9.01
2023-02-24T21:59:02.702Z,8.71
2023-02-24T22:01:36.120Z,8.74
2023-02-24T22:04:07.811Z,8.66
2023-02-24T22:06:38.008Z,8.67
2023-02-24T22:09:08.900Z,8.65
2023-02-24T22:11:40.809Z,8.70
2023-02-24T22:14:14.172Z,8.69
2023-02-24T22:16:42.831Z,8.57
2023-02-24T22:19:11.130Z,8.55
2023-02-24T22:21:41.594Z,8.66
2023-02-24T22:24:14.031Z,8.78
2023-02-24T22:26:42.545Z,8.76
2023-02-24T22:29:10.865Z,8.74
2023-02-24T22:31:39.462Z,8.75
2023-02-24T22:34:08.681Z,8.69
2023-02-24T22:36:37.410Z,8.77
2023-02-24T22:39:07.211Z,8.80
2023-02-24T22:41:36.284Z,8.85
2023-02-24T22:44:06.154Z,8.96
2023-02-24T22:46:37.937Z,9.04
2023-02-24T22:49:06.411Z,9.01
2023-02-24T22:51:33.995Z,9.02
2023-02-24T22:54:01.657Z,9.02
2023-02-24T22:56:30.709Z,8.99
2023-02-24T22:58:59.095Z,9.09
2023-02-24T23:01:33.170Z,9.18
2023-02-24T23:04:02.859Z,9.22
2023-02-24T23:06:31.132Z,9.27
2023-02-24T23:09:00.772Z,9.31
2023-02-24T23:11:34.837Z,9.34
2023-02-24T23:14:06.807Z,9.38
2023-02-24T23:16:37.058Z,9.42
2023-02-24T23:19:13.289Z,9.40
2023-02-24T23:21:45.182Z,9.35
2023-02-24T23:24:14.556Z,9.34
2023-02-24T23:26:54.475Z,9.25
2023-02-24T23:29:24.834Z,9.18
2023-02-24T23:31:53.019Z,9.22
2023-02-24T23:34:21.012Z,9.25
2023-02-24T23:36:48.712Z,9.17
2023-02-24T23:39:22.854Z,9.09
2023-02-24T23:41:56.726Z,8.92
2023-02-24T23:44:25.224Z,8.75
2023-02-24T23:46:52.782Z,8.62
2023-02-24T23:49:20.353Z,8.77
2023-02-24T23:51:49.091Z,8.69
2023-02-24T23:54:18.437Z,8.77
2023-02-24T23:56:46.414Z,8.64
2023-02-24T23:59:14.333Z,8.54
